首页
METAR-TAF:

METAR-TAF

机场 :

熊本機場

熊本, 日本

纬度: 32-50N, 经度: 130-51E, 海拔: 193米

当前天气观测

该预报发布于32分钟前的09:00 UTC
风速8节,风向东北
温度 13°C
湿度 54%
气压 1020 hPa
能见度10公里或以上
少量云层高于3500英尺

METAR: RJFT 140900Z 05008KT 9999 FEW035 13/04 Q1020

时间: 18:32 (09:32 UTC)

预报

该预报发布于4小时和22分钟前的05:10 UTC
预报有效从14日的 06点(UTC)到 15日的 12点(UTC)
风速9节,风向北转东北
能见度10公里或以上
少量云层高于4000英尺
散云层高于5000英尺
成为
从 15日的 03点(UTC)到 15日的 06点(UTC)
风速3节,风向西北
成为
从 15日的 09点(UTC)到 15日的 12点(UTC)
风速8节,风向东转东北

TAF: RJFT 140510Z 1406/1512 02009KT 9999 FEW040 SCT050 BECMG 1503/1506 31003KT BECMG 1509/1512 07008KT

超过4000个机场的气象观测和天气预报(METAR&TAF报告)。

可查询的气象台以黄色和红色小点在地图上表示。

将鼠标移到小点上方,可查看气象台名称。

然后点击查看天气观测和预报。

如需切换地图:点击带黑十字的绿色按钮放大地图;点击带横线的绿色按钮缩小地图;或者点击绿色箭头查看邻近地区的地图。


METAR-TAF: